x

8557380 - Lewes, De (lwsd1) Weather Station

10:54am - Tue 21st Oct 2014 All times are EDT. -4 hours from GMT.

  • Wind
    11mph, 16mph gusts
  • Sea Temp 63°f
  • Air Temp 64°f
  • Sea Pressure 1011mb
  • 8557380 - Lewes, De
  • 8557380 - Lewes, De

More Historic Weather Station data

Upgrade to MSW Pro to gain access to the past 30 days of data for over 8000 Wavebouys and Weather Stations around the globe.

Join Pro

Comparision Forecast

View Surf forecast
   
Tue 10/21 10:54am 11 16 mph 1011mb 63f 64f
10:48am 10 13 mph 1011.1mb 63f 64f
10:42am 7 9 mph 1011.1mb 63f 64f
10:36am 8 9 mph 1011mb 63f 63f
10:30am 9 11 mph 1011.2mb 63f 62f
10:24am 8 10 mph 1011.2mb 63f 62f
10:18am 9 11 mph 1011.3mb 63f 62f
10:12am 8 10 mph 1011.3mb 63f 62f
10:06am 5 7 mph 1011.3mb 63f 62f
10:00am 7 9 mph 1011.4mb 63f 62f
9:54am 8 11 mph 1011.4mb 63f 62f
9:48am 6 8 mph 1011.3mb 63f 62f
9:42am 6 9 mph 1011.5mb 63f 61f
9:36am 3 6 mph 1011.5mb 63f 60f
9:30am 5 9 mph 1011.6mb 62f 60f
9:24am 5 8 mph 1011.6mb 62f 60f
9:18am 6 8 mph 1011.6mb 62f 60f
9:12am 6 10 mph 1011.7mb 62f 60f
9:06am 7 10 mph 1011.8mb 62f 60f
9:00am 7 9 mph 1011.9mb 63f 60f
8:54am 5 7 mph 1011.9mb 63f 60f
8:48am 6 9 mph 1012mb 63f 60f
8:42am 3 6 mph 1011.9mb 63f 60f
8:36am 3 7 mph 1011.9mb 63f 60f
8:30am 3 7 mph 1011.8mb 63f 60f
8:24am 6 8 mph 1011.7mb 63f 60f
8:18am 5 7 mph 1011.6mb 63f 60f
8:12am 6 8 mph 1011.5mb 63f 60f
8:06am 5 7 mph 1011.4mb 63f 59f
8:00am 6 8 mph 1011.4mb 63f 59f
7:54am 7 9 mph 1011.3mb 63f 59f
7:48am 6 7 mph 1011.2mb 63f 59f
7:42am 6 8 mph 1011.3mb 63f 59f
7:36am 6 9 mph 1011.2mb 63f 58f
7:30am 7 9 mph 1011.2mb 63f 58f
7:24am 5 7 mph 1011.3mb 62f 58f
7:18am 6 8 mph 1011.2mb 62f 58f
7:12am 6 9 mph 1011.2mb 62f 58f
7:06am 5 7 mph 1011.2mb 62f 58f
7:00am 6 8 mph 1011.2mb 62f 58f
6:54am 6 8 mph 1011.1mb 62f 58f
6:48am 6 8 mph 1011.2mb 62f 58f
6:42am 5 8 mph 1011.1mb 62f 58f
6:36am 6 8 mph 1011.2mb 62f 58f
6:30am 6 8 mph 1011.2mb 62f 58f
6:24am 5 9 mph 1011.2mb 62f 58f
6:18am 5 8 mph 1011.2mb 62f 58f
6:12am 3 7 mph 1011.2mb 62f 58f
6:06am 5 7 mph 1011.1mb 62f 58f
6:00am 5 7 mph 1011.3mb 62f 58f
5:54am 6 8 mph 1011.2mb 62f 58f
5:48am 5 7 mph 1011.2mb 62f 58f
5:42am 6 9 mph 1011.3mb 62f 58f
5:36am 6 8 mph 1011.5mb 62f 58f
5:30am 6 9 mph 1011.5mb 62f 58f
5:24am 5 7 mph 1011.6mb 62f 58f
5:18am 6 8 mph 1011.6mb 62f 58f
5:12am 6 8 mph 1011.6mb 62f 58f
5:06am 6 7 mph 1011.8mb 62f 58f
5:00am 6 7 mph 1011.9mb 62f 58f
4:54am 5 7 mph 1011.9mb 62f 58f
4:48am 5 7 mph 1011.9mb 62f 58f
4:42am 6 9 mph 1011.9mb 62f 58f
4:36am 6 8 mph 1011.9mb 62f 58f
4:30am 6 8 mph 1011.9mb 62f 58f
4:24am 6 9 mph 1012mb 62f 58f
4:18am 6 9 mph 1012mb 62f 57f
4:12am 5 8 mph 1012mb 62f 57f
4:06am 5 7 mph 1012.1mb 62f 57f
4:00am 6 8 mph 1012.1mb 62f 57f
3:54am 5 7 mph 1012.3mb 62f 57f
3:48am 5 6 mph 1012.2mb 62f 57f
3:42am 5 6 mph 1012.3mb 62f 57f
3:36am 3 6 mph 1012.4mb 62f 57f
3:30am 5 6 mph 1012.5mb 62f 57f
3:24am 3 6 mph 1012.4mb 62f 57f
3:18am 5 7 mph 1012.6mb 62f 57f
3:12am 7 9 mph 1012.6mb 62f 57f
3:06am 6 8 mph 1012.8mb 62f 57f
3:00am 5 8 mph 1012.9mb 62f 57f
2:54am 5 7 mph 1013mb 62f 57f
2:48am 3 6 mph 1013mb 62f 57f
2:42am 3 6 mph 1013.1mb 62f 57f
2:36am 6 8 mph 1013.1mb 62f 57f
2:30am 5 8 mph 1013mb 62f 57f
2:24am 5 8 mph 1013.1mb 62f 57f
2:18am 5 7 mph 1013.1mb 62f 57f
2:12am 5 7 mph 1013.1mb 62f 57f
2:06am 5 8 mph 1013.3mb 62f 58f
2:00am 5 7 mph 1013.3mb 62f 58f
1:54am 5 6 mph 1013.4mb 62f 58f
1:48am 5 7 mph 1013.5mb 62f 58f
1:42am 5 7 mph 1013.6mb 62f 58f
1:36am 3 7 mph 1013.7mb 62f 58f
1:30am 5 6 mph 1013.8mb 62f 58f
1:24am 3 7 mph 1013.8mb 62f 58f
1:18am 5 7 mph 1013.8mb 62f 58f
1:12am 5 7 mph 1013.9mb 62f 58f
1:06am 5 8 mph 1013.9mb 62f 58f
1:00am 5 8 mph 1014mb 62f 58f
12:54am 5 7 mph 1014mb 62f 58f
12:48am 5 6 mph 1014.1mb 62f 58f
12:42am 6 7 mph 1014.2mb 62f 58f
12:36am 5 8 mph 1014.2mb 62f 58f
12:30am 5 7 mph 1014.2mb 62f 57f
12:24am 5 7 mph 1014.4mb 62f 57f
12:18am 3 5 mph 1014.4mb 62f 57f
12:12am 5 6 mph 1014.5mb 62f 57f
12:06am 3 6 mph 1014.5mb 62f 57f
12:00am 3 6 mph 1014.6mb 62f 58f
Mon 10/20 11:54pm 5 7 mph 1014.5mb 62f 58f
11:48pm 5 7 mph 1014.6mb 62f 57f
11:42pm 6 7 mph 1014.7mb 62f 57f
11:36pm 5 7 mph 1014.8mb 62f 57f
11:30pm 3 6 mph 1014.9mb 62f 57f
11:24pm 3 6 mph 1015mb 62f 57f
11:18pm 3 6 mph 1015.1mb 62f 57f
11:12pm 5 7 mph 1015.1mb 62f 57f
11:06pm 3 6 mph 1015.2mb 62f 57f
11:00pm 5 7 mph 1015.2mb 62f 57f
9:30pm  -  mph - 62f -
9:24pm  -  mph - 62f -
9:18pm 5 7 mph - - -
9:12pm 5 6 mph - - -
9:06pm 2 5 mph - - -
9:00pm 3 6 mph - - -
8:54pm 2 5 mph - - -
8:48pm  -  mph - 62f 58f
8:42pm  -  mph - 62f 58f
8:36pm  -  mph - 62f 58f
8:30pm 5 8 mph 1015.6mb 62f 58f
8:24pm 3 7 mph 1015.7mb 62f 58f
8:18pm 3 6 mph 1015.7mb 62f 58f
8:12pm 3 6 mph 1015.7mb 62f 58f
8:06pm 3 7 mph 1015.8mb 62f 58f
8:00pm 2 5 mph 1015.7mb 62f 58f
7:54pm 3 6 mph 1015.6mb 62f 59f
7:48pm 5 6 mph 1015.6mb 62f 59f
7:42pm 2 5 mph 1015.7mb 62f 59f
7:36pm 2 5 mph 1015.6mb 62f 59f
7:30pm 3 6 mph 1015.6mb 62f 59f
7:24pm 3 7 mph 1015.6mb 62f 59f
7:18pm 5 8 mph 1015.7mb 62f 59f
7:12pm 5 7 mph 1015.7mb 62f 59f
7:06pm 6 8 mph 1015.6mb 62f 59f
7:00pm 5 7 mph 1015.6mb 62f 60f
6:54pm 6 8 mph 1015.6mb 62f 60f
6:48pm 5 8 mph 1015.6mb 62f 60f
6:42pm 7 10 mph 1015.5mb 62f 60f
6:36pm 6 13 mph 1015.4mb 62f 60f
6:30pm 6 9 mph 1015.4mb 62f 60f
6:24pm 6 10 mph 1015.4mb 62f 60f
6:18pm 6 8 mph 1015.4mb 62f 61f
6:12pm 6 8 mph 1015.4mb 62f 61f
6:06pm 6 9 mph 1015.3mb 62f 61f
6:00pm 6 9 mph 1015.3mb 62f 61f
5:54pm 7 13 mph 1015.3mb 62f 62f
5:48pm 8 11 mph 1015.2mb 62f 62f
5:42pm 8 13 mph 1015.2mb 62f 62f
5:36pm 6 10 mph 1015.2mb 62f 62f
5:30pm 8 14 mph 1015.1mb 62f 62f
5:24pm 7 10 mph 1015.1mb 62f 63f
5:18pm 8 13 mph 1015.1mb 61f 63f
5:12pm 9 14 mph 1015.1mb 61f 63f
5:06pm 8 15 mph 1015.1mb 61f 64f
5:00pm 8 13 mph 1015.1mb 62f 64f
4:54pm 8 13 mph 1015.2mb 61f 64f
4:48pm 9 15 mph 1015.1mb 61f 64f
4:42pm 11 15 mph 1015.2mb 61f 65f
4:36pm 9 15 mph 1015.2mb 61f 65f
4:30pm 9 13 mph 1015.2mb 61f 65f
4:24pm 7 11 mph 1015.2mb 61f 65f
4:18pm 10 15 mph 1015.2mb 61f 65f
4:12pm 9 14 mph 1015.3mb 61f 65f
4:06pm 9 14 mph 1015.5mb 61f 65f
4:00pm 6 9 mph 1015.4mb 61f 65f
3:54pm 10 16 mph 1015.6mb 61f 65f
3:48pm 9 16 mph 1015.5mb 61f 65f
3:42pm 10 18 mph 1015.6mb 61f 65f
3:36pm 10 15 mph 1015.6mb 61f 65f
3:30pm 11 16 mph 1015.7mb 61f 65f
3:24pm 10 16 mph 1015.8mb 61f 65f
3:18pm 7 15 mph 1015.8mb 61f 65f
3:12pm 7 16 mph 1015.9mb 61f 64f
3:06pm 10 18 mph 1016mb 61f 65f
3:00pm 9 17 mph 1016.1mb 61f 64f
2:54pm 10 17 mph 1016.2mb 61f 64f
2:48pm 8 13 mph 1016.4mb 61f 64f
2:42pm 7 10 mph 1016.4mb 61f 64f
2:36pm 8 13 mph 1016.5mb 61f 64f
2:30pm 5 11 mph 1016.5mb 61f 64f
2:24pm 6 13 mph 1016.5mb 61f 64f
2:18pm 8 14 mph 1016.6mb 61f 63f
2:12pm 11 16 mph 1016.7mb 61f 63f
2:06pm 10 16 mph 1016.9mb 61f 63f
2:00pm 9 17 mph 1016.9mb 61f 63f
1:54pm 8 10 mph 1017mb 61f 63f
1:48pm 6 10 mph 1017.2mb 61f 63f
1:42pm 13 17 mph 1017.3mb 61f 63f
1:36pm 9 14 mph 1017.4mb 61f 62f
1:30pm 10 14 mph 1017.5mb 61f 63f
1:24pm 9 14 mph 1017.5mb 61f 63f
1:18pm 10 13 mph 1017.7mb 61f 63f
1:12pm 9 14 mph 1017.9mb 61f 63f
1:06pm 8 13 mph 1018.1mb 61f 62f
1:00pm 10 17 mph 1018.3mb 61f 62f
12:54pm 8 13 mph 1018.5mb 61f 62f
12:48pm 11 15 mph 1018.6mb 61f 61f
12:42pm 8 14 mph 1018.8mb 61f 62f
12:36pm 8 13 mph 1018.9mb 61f 62f
12:30pm 5 9 mph 1019mb 61f 62f
12:24pm 8 13 mph 1019.2mb 61f 61f
12:18pm 8 15 mph 1019.2mb 60f 61f
12:12pm 7 15 mph 1019.5mb 60f 61f
12:06pm 6 9 mph 1019.6mb 60f 61f
12:00pm 8 11 mph 1019.6mb 60f 60f
11:54am 7 14 mph 1019.8mb 60f 60f
11:48am 7 11 mph 1019.8mb 60f 60f
11:42am 8 14 mph 1019.9mb 60f 59f
11:36am 9 14 mph 1020mb 60f 58f
11:30am 9 15 mph 1020.2mb 60f 58f
11:24am 6 8 mph 1020.3mb 60f 58f
11:18am 7 13 mph 1020.4mb 60f 58f
11:12am 7 10 mph 1020.6mb 60f 58f
11:06am 8 14 mph 1020.8mb 60f 58f
11:00am 9 15 mph 1020.9mb 60f 58f
10:54am 6 10 mph 1020.8mb 60f 58f
10:48am 7 10 mph 1020.8mb 60f 57f
10:42am 8 11 mph 1020.9mb 60f 57f
10:36am 9 14 mph 1021mb 60f 57f
10:30am 6 11 mph 1021mb 60f 57f
10:24am 6 8 mph 1020.9mb 60f 57f
10:18am 5 8 mph 1020.9mb 60f 57f
10:12am 6 8 mph 1020.9mb 60f 56f
10:06am 3 8 mph 1020.8mb 60f 56f
10:00am 6 8 mph 1020.8mb 60f 56f
9:54am 5 7 mph 1020.8mb 60f 55f
9:48am 5 6 mph 1020.9mb 60f 56f
9:42am 5 7 mph 1020.9mb 60f 55f
9:36am 6 7 mph 1020.9mb 60f 54f
9:30am 5 6 mph 1020.9mb 60f 53f
9:24am 5 6 mph 1020.8mb 60f 53f
9:18am 3 5 mph 1020.8mb 60f 53f
9:12am 2 5 mph 1020.8mb 60f 52f
9:06am 5 6 mph 1020.8mb 60f 51f
9:00am 5 7 mph 1020.8mb 60f 50f
8:54am 3 5 mph 1020.7mb 60f 50f
8:48am 3 6 mph 1020.7mb 60f 49f
8:42am 3 6 mph 1020.8mb 60f 48f
8:36am 3 6 mph 1020.7mb 60f 48f
8:30am 3
mph
1020.6mb 60f 47f
8:24am 5 7 mph 1020.6mb 60f 47f
8:18am 5 7 mph 1020.6mb 60f 46f
8:12am 6 8 mph 1020.6mb 60f 46f
8:06am 6 8 mph 1020.6mb 61f 45f
8:00am 6 7 mph 1020.5mb 61f 45f
7:54am 5 7 mph 1020.4mb 61f 44f
7:48am 6 8 mph 1020.5mb 61f 43f
7:42am 3 6 mph 1020.4mb 61f 43f
7:36am 6 7 mph 1020.4mb 61f 43f
7:30am 5 7 mph 1020.2mb 61f 43f
7:24am 5 6 mph 1020mb 61f 43f
7:18am 5 6 mph 1019.9mb 61f 43f
7:12am 5 6 mph 1020.2mb 61f 43f
7:06am 5 7 mph 1020.3mb 61f 43f
7:00am 5 7 mph 1020.4mb 61f 43f
6:54am 6 8 mph 1020.4mb 61f 43f
6:48am 7 8 mph 1020.3mb 61f 43f
6:42am 6 8 mph 1020.3mb 61f 43f
6:36am 7 8 mph 1020.1mb 61f 43f
6:30am 6 7 mph 1020mb 61f 43f
6:24am 8
mph
1019.9mb 61f 44f
6:18am 6 7 mph 1019.7mb 61f 44f
6:12am 6 7 mph 1019.8mb 61f 44f
6:06am 7
mph
1020mb 61f 44f
6:00am 6 7 mph 1020mb 61f 44f
5:54am 6 7 mph 1019.9mb 61f 45f
5:48am 6
mph
1019.9mb 61f 44f
5:42am 5 6 mph 1019.8mb 61f 44f
5:36am 7 8 mph 1020mb 61f 44f
5:30am 6 7 mph 1020mb 61f 44f
5:24am 8 9 mph 1019.8mb 61f 44f
5:18am 7 8 mph 1019.7mb 61f 44f
5:12am 8 9 mph 1019.8mb 61f 45f
5:06am 6 7 mph 1019.8mb 61f 49f
5:00am 5
mph
1019.6mb 61f 49f
4:54am 5
mph
1019.6mb 61f 48f
4:48am 3 5 mph 1019.6mb 61f 48f
4:42am  -  mph 1019.6mb 61f 50f
4:36am  -  1 mph 1019.6mb 62f 50f
4:30am  -  2 mph 1019.5mb 62f 50f
4:24am  -  mph 1019.5mb 62f 49f
4:18am 2 3 mph 1019.6mb 62f 47f
4:12am  -  2 mph 1019.5mb 62f 50f
4:06am 6 8 mph 1019.5mb 62f 49f
4:00am 6 10 mph 1019.5mb 62f 47f
3:54am 6 8 mph 1019.4mb 62f 43f
3:48am 9 11 mph 1019.3mb 62f 43f
3:42am 7 9 mph 1019.2mb 62f 43f
3:36am 5 6 mph 1019.2mb 62f 43f
3:30am 3 6 mph 1019.2mb 62f 43f
3:24am 3 5 mph 1019.2mb 62f 43f
3:18am 5 6 mph 1019.3mb 62f 44f
3:12am 6 7 mph 1019.4mb 62f 44f
3:06am 7 8 mph 1019.4mb 62f 44f
3:00am 7 9 mph 1019.4mb 62f 44f
2:54am 8 9 mph 1019.5mb 62f 44f
2:48am 8 9 mph 1019.4mb 61f 44f
2:42am 7 8 mph 1019.2mb 61f 44f
2:36am 7 8 mph 1019.2mb 61f 44f
2:30am 7 8 mph 1019.3mb 61f 44f
2:24am 6 7 mph 1019.2mb 61f 44f
2:18am 6 8 mph 1019.1mb 61f 44f
2:12am 6 7 mph 1019.1mb 61f 44f
2:06am 7 8 mph 1019.2mb 61f 44f
2:00am 8 9 mph 1019.2mb 61f 44f
1:54am 8 9 mph 1019.2mb 61f 44f
1:48am 6 8 mph 1019.2mb 61f 44f
1:42am 8 10 mph 1019.2mb 61f 44f
1:36am 7 9 mph 1019.1mb 61f 44f
1:30am 9 10 mph 1019.1mb 62f 44f
1:24am 5 7 mph 1019mb 62f 44f
1:18am 6 8 mph 1019mb 62f 44f
1:12am 3 6 mph 1019mb 62f 44f
1:06am 6 7 mph 1019mb 62f 45f
1:00am 6 7 mph 1019mb 62f 45f
12:48am 6 7 mph 1019.1mb 62f 45f
12:42am 6 7 mph 1019.1mb 62f 46f
12:36am 6 7 mph 1019.1mb 62f 46f
12:30am 6 8 mph 1019.1mb 62f 47f
12:24am 6 7 mph 1019.1mb 62f 48f
12:18am 6 8 mph 1019.1mb 62f 48f
12:12am 7 9 mph 1019mb 62f 49f
12:06am 7 9 mph 1019mb 62f 51f
12:00am 8 10 mph 1018.9mb 62f 51f
Sun 10/19 11:54pm 8 10 mph 1019mb 62f 50f
11:48pm 8 10 mph 1019mb 62f 51f
11:30pm 10 11 mph 1018.9mb 62f 52f
11:24pm 10 11 mph 1018.9mb 62f 51f
11:18pm 10 11 mph 1018.9mb 62f 52f
11:12pm 10 11 mph 1018.9mb 62f 52f
11:06pm 11 13 mph 1018.9mb 62f 53f
11:00pm 10 13 mph 1018.7mb 62f 53f
10:54pm 10 13 mph 1018.8mb 62f 52f
10:48pm 11 14 mph 1018.8mb 62f 52f
10:42pm 9 10 mph 1018.8mb 62f 53f
10:36pm 13 16 mph 1018.7mb 62f 55f
10:30pm 14 18 mph 1018.6mb 62f -
10:24pm 17 22 mph 1018.6mb 62f -
10:18pm 18 22 mph 1018.4mb 62f 57f
10:12pm 17 22 mph 1018.3mb 62f 57f
10:06pm 20 23 mph 1018.4mb 62f 56f
10:00pm 18 23 mph 1018.3mb 62f 56f
9:54pm 18 23 mph 1018.3mb 62f 56f
9:48pm 20 23 mph 1018.2mb 62f 56f
9:42pm 21 24 mph 1018.2mb 62f 56f
9:36pm 18 23 mph 1018.2mb 62f 56f
9:30pm 18 21 mph 1018.3mb 62f 57f
9:24pm 21 25 mph 1018.2mb 62f 56f
9:18pm 18 22 mph 1018.2mb 62f 56f
9:12pm 21 25 mph 1018.2mb 62f 56f
9:06pm 20 25 mph 1018.3mb 62f 56f
9:00pm 18 23 mph 1018.2mb 62f 56f
8:54pm 17 22 mph 1018.1mb 62f 56f
8:48pm 16 20 mph 1018.1mb 62f 56f
8:42pm 16 20 mph 1018.1mb 62f 56f
8:36pm 15 18 mph 1018.1mb 63f 56f
8:30pm 13 18 mph 1018mb 62f 55f
8:24pm 11 15 mph 1018mb 63f 54f
8:18pm 13 18 mph 1018mb 63f 55f
8:12pm 14 18 mph 1017.9mb 63f 55f
8:06pm 14 18 mph 1017.9mb 63f 56f
8:00pm 16 20 mph 1017.9mb 63f 56f
7:54pm 10 18 mph 1017.9mb 63f 57f
7:48pm 16 20 mph 1017.9mb 63f 56f
7:42pm 17 21 mph 1017.8mb 63f 56f
7:36pm 18 23 mph 1017.8mb 63f 56f
7:30pm 17 24 mph 1017.7mb 63f 56f
7:24pm 15 20 mph 1017.7mb 63f 56f
7:18pm 21 25 mph 1017.6mb 63f 56f
7:12pm 21 24 mph 1017.4mb 63f 56f
7:06pm 20 23 mph 1017.3mb 63f 56f
7:00pm 20 22 mph 1017.2mb 63f 56f
6:54pm 20 23 mph 1017.1mb 63f 56f
6:48pm 20 22 mph 1016.9mb 63f 56f
6:42pm 18 22 mph 1016.9mb 63f 56f
6:36pm 21 24 mph 1016.9mb 63f 56f
6:30pm 21 24 mph 1016.8mb 63f 56f
6:24pm 20 24 mph 1016.7mb 63f 56f
6:18pm 21 25 mph 1016.6mb 63f 56f
6:12pm 21 25 mph 1016.4mb 63f 56f
6:06pm 21 24 mph 1016.5mb 63f 55f
6:00pm 22 25 mph 1016.4mb 63f 56f
5:54pm 22 28 mph 1016.4mb 63f 56f
5:48pm 24 28 mph 1016.3mb 63f 56f
5:42pm 23 26 mph 1016.2mb 63f 56f
5:36pm 22 26 mph 1016.2mb 63f 56f
5:30pm 23 28 mph 1016.1mb 63f 56f
5:24pm 23 29 mph 1016.1mb 63f 56f
5:18pm 23 26 mph 1016mb 63f 56f
5:12pm 20 24 mph 1016mb 63f 56f
5:06pm 23 26 mph 1015.8mb 63f 56f
5:00pm 22 24 mph 1015.9mb 63f 55f
4:54pm 23 25 mph 1015.7mb 63f 56f
4:48pm 22 25 mph 1015.6mb 63f 56f
4:42pm 23 29 mph 1015.5mb 63f 56f
4:36pm 24 28 mph 1015.4mb 63f 55f
4:30pm 21 26 mph 1015.4mb 63f 56f
4:24pm 24 28 mph 1015.2mb 63f 56f
4:18pm 26 33 mph 1015mb 63f 56f
4:12pm 26 30 mph 1015.1mb 63f 55f
4:06pm 22 29 mph 1015.2mb 63f 55f
4:00pm 26 32 mph 1015.2mb 63f 55f
3:54pm 24 30 mph 1015.1mb 63f 55f
3:48pm 24 31 mph 1015.1mb 63f 55f
3:42pm 23 29 mph 1015mb 63f 55f
3:36pm 23 29 mph 1014.9mb 63f 55f
3:30pm 26 32 mph 1014.8mb 63f 55f
3:24pm 26 31 mph 1014.8mb 63f 55f
3:18pm 26 31 mph 1014.7mb 63f 55f
3:12pm 22 25 mph 1014.8mb 63f 55f
3:06pm 24 29 mph 1014.8mb 63f 55f
3:00pm 28 31 mph 1014.7mb 63f 54f
2:54pm 28 33 mph 1014.5mb 63f 55f
2:48pm 22 31 mph 1014.6mb 63f 54f
2:42pm 24 33 mph 1014.5mb 63f 54f
2:36pm 18 29 mph 1014.6mb 63f 55f
2:30pm 25 28 mph 1014.7mb 63f 54f
2:24pm 25 33 mph 1014.6mb 63f 54f
2:18pm 23 28 mph 1014.6mb 63f 54f
2:12pm 23 28 mph 1014.7mb 63f 54f
2:06pm 25 31 mph 1014.6mb 63f 54f
2:00pm 21 25 mph 1014.6mb 63f 54f
1:54pm 23 26 mph 1014.7mb 63f 53f
1:48pm 29 32 mph 1014.7mb 63f 53f
1:42pm 26 32 mph 1014.7mb 63f 53f
1:36pm 24 30 mph 1014.7mb 63f 54f
1:30pm 28 32 mph 1014.6mb 63f 54f
1:24pm 26 32 mph 1014.6mb 63f 54f
1:18pm 30 34 mph 1014.6mb 63f 54f
1:12pm 25 30 mph 1014.5mb 63f 54f
1:06pm 24 29 mph 1014.6mb 63f 54f
1:00pm 24 30 mph 1014.6mb 63f 54f
12:54pm 21 26 mph 1014.6mb 63f 54f
12:48pm 25 29 mph 1014.7mb 63f 54f
12:42pm 25 30 mph 1014.7mb 63f 54f
12:36pm 22 28 mph 1014.7mb 63f 53f
12:30pm 25 32 mph 1014.7mb 63f 53f
12:24pm 23 32 mph 1014.7mb 63f 53f
12:18pm 25 31 mph 1014.6mb 63f 53f
12:12pm 28 34 mph 1014.7mb 63f 53f
12:06pm 26 31 mph 1014.7mb 63f 53f
12:00pm 30 33 mph 1014.7mb 63f 53f
11:54am 25 31 mph 1014.9mb 63f 53f
11:48am 26 30 mph 1014.8mb 64f 53f
11:42am 26 32 mph 1014.9mb 63f 53f
11:36am 24 29 mph 1014.8mb 64f 53f
11:30am 25 31 mph 1014.7mb 64f 53f
11:24am 26 32 mph 1014.5mb 64f 53f
11:18am 25 30 mph 1014.5mb 64f 53f
11:12am 25 30 mph 1014.5mb 64f 53f
11:06am 28 34 mph 1014.4mb 64f 53f
11:00am 26 37 mph 1014.5mb 64f 54f
10:54am 29 34 mph 1014.6mb 64f 53f
10:48am 30 39 mph 1014.5mb 64f 53f
10:42am 32 38 mph 1014.6mb 64f 53f
10:36am 32 37 mph 1014.6mb 64f 53f
10:30am 30 38 mph 1014.6mb 64f 53f
10:24am 31 37 mph 1014.5mb 64f 53f
10:18am 30 36 mph 1014.5mb 64f 53f
10:12am 32 37 mph 1014.5mb 64f 53f
10:06am 32 38 mph 1014.5mb 64f 53f
10:00am 30 36 mph 1014.4mb 64f 53f
9:54am 32 43 mph 1014.3mb 64f 53f
9:48am 30 38 mph 1014.3mb 64f 53f
9:42am 33 39 mph 1014.2mb 64f 53f
9:36am 32 38 mph 1014mb 64f 53f
9:30am 31 39 mph 1014mb 64f 53f
9:24am 30 36 mph 1013.9mb 64f 53f
9:18am 32 40 mph 1013.8mb 64f 53f
9:12am 32 39 mph 1013.8mb 64f 53f
9:06am 32 39 mph 1013.8mb 64f 53f
9:00am 29 36 mph 1013.6mb 64f 53f
8:54am 29 38 mph 1013.7mb 64f 53f
8:48am 32 39 mph 1013.3mb 64f 53f
8:42am 32 38 mph 1013.2mb 64f 53f
8:36am 28 38 mph 1013.2mb 64f 54f
8:30am 31 38 mph 1013.4mb 64f 53f
8:24am 31 39 mph 1013.2mb 64f 53f
8:18am 29 36 mph 1013.1mb 64f 53f
8:12am  -  mph 1013mb 64f 53f
8:06am  -  mph 1012.9mb 64f 53f
8:00am  -  mph 1012.8mb 64f 54f
7:54am  -  mph 1012.6mb 64f 54f
7:48am  -  mph 1012.5mb - -
5:12am 18 22 mph 1010.2mb 65f 53f
5:06am 17 21 mph 1010.2mb 65f 53f
5:00am 15 20 mph 1010.3mb 65f 53f
4:54am 14 17 mph 1010.3mb 65f 53f
4:48am 15 17 mph 1010.3mb 65f 52f
4:42am 16 20 mph 1010.3mb 65f 52f
4:36am 14 17 mph 1010.3mb 65f 52f
4:30am 16 20 mph 1010.2mb 65f 52f
4:24am 15 17 mph 1010.1mb 65f 51f
4:18am 14 17 mph 1010mb 65f 51f
4:12am 14 16 mph 1010mb 65f 51f
4:06am 13 15 mph 1010mb 65f 51f
4:00am 14 16 mph 1009.8mb 65f 51f
3:54am 13 16 mph 1009.7mb 65f 51f
3:48am 15 17 mph 1009.7mb 65f 51f
3:42am 14 17 mph 1009.6mb 65f 51f
3:36am 14 18 mph 1009.5mb 65f 51f
3:30am 14 18 mph 1009.5mb 65f 52f
3:24am 13 16 mph 1009.6mb 65f 52f
3:18am 13 16 mph 1009.7mb 65f 51f
3:12am 15 17 mph 1009.6mb 65f 52f
3:06am 15 18 mph 1009.5mb 65f 52f
3:00am 13 15 mph 1009.6mb 65f 52f
2:54am 14 16 mph 1009.5mb 65f 52f
2:48am 15 17 mph 1009.5mb 65f 52f
2:42am 14 17 mph 1009.5mb 65f 52f
2:36am 11 14 mph 1009.5mb 65f 52f
2:30am 13 15 mph 1009.5mb 65f 52f
2:24am 14 16 mph 1009.4mb 65f 53f
2:18am 14 17 mph 1009.4mb 65f 53f
2:12am 15 17 mph 1009.3mb 65f 53f
2:06am 15 18 mph 1009.3mb 65f 53f
2:00am 14 17 mph 1009.3mb 66f 53f
1:54am 14 18 mph 1009.3mb 66f 53f
1:48am 13 15 mph 1009.4mb 66f 53f
1:42am 13 15 mph 1009.3mb 66f 53f
1:36am 14 16 mph 1009.3mb 66f 53f
1:30am 10 13 mph 1009.3mb 66f 54f
1:24am 13 15 mph 1009.3mb 66f 54f
1:18am 14 16 mph 1009.2mb 66f 54f
1:12am 13 17 mph 1009.3mb 66f 55f
1:06am 11 14 mph 1009.3mb 66f 54f
1:00am 14 17 mph 1009.3mb 66f 55f
12:54am 15 18 mph 1009.3mb 66f 55f
12:48am 16 18 mph 1009.3mb 66f 56f
12:42am 18 22 mph 1009.3mb 66f 56f
12:36am 17 21 mph 1009.2mb 66f 56f
12:30am 21 24 mph 1009.2mb 66f 56f
12:24am 21 23 mph 1009.2mb 66f 56f
12:18am 20 24 mph 1009.2mb 66f 56f
12:12am 17 22 mph 1009.2mb 66f 56f
12:06am 17 21 mph 1009.2mb 66f 56f
12:00am 18 21 mph 1009.2mb 66f 56f
Sat 10/18 11:54pm 17 23 mph 1009.3mb 66f 56f
11:48pm 17 22 mph 1009.4mb 66f 56f
11:42pm 17 21 mph 1009.4mb 66f 56f
11:36pm 17 22 mph 1009.4mb 66f 57f
11:30pm 18 22 mph 1009.3mb 66f 57f
11:24pm 18 23 mph 1009.2mb 66f 57f
11:18pm 16 21 mph 1009.3mb 66f 57f
11:12pm 16 20 mph 1009.4mb 66f 57f
11:06pm 18 24 mph 1009.3mb 66f 58f
11:00pm 18 22 mph 1009.3mb 66f 58f
10:54pm 23 28 mph 1009.2mb 66f 58f
10:48pm 21 25 mph 1009.3mb 66f 58f
10:42pm 20 24 mph 1009.2mb 66f 59f
10:36pm 21 26 mph 1009.3mb 66f 58f
10:30pm 21 23 mph 1009.2mb 66f 59f
10:24pm 22 28 mph 1009.2mb 66f 59f
10:18pm 21 25 mph 1009.2mb 66f 59f
10:12pm 21 24 mph 1009.1mb 66f 59f
10:06pm 18 22 mph 1009.1mb 66f 59f
10:00pm 23 28 mph 1009mb 66f 59f
9:54pm 22 29 mph 1008.9mb 66f 59f
9:48pm 24 29 mph 1008.9mb 66f 59f
9:42pm 26 31 mph 1008.8mb 66f 60f
9:36pm 25 33 mph 1008.8mb 66f 60f
9:30pm 26 30 mph 1008.7mb 66f 60f
9:24pm 25 32 mph 1008.6mb 66f 60f
9:18pm 25 30 mph 1008.7mb 66f 60f
9:12pm 24 30 mph 1008.6mb 67f 60f
9:06pm 28 31 mph 1008.6mb 67f 60f
9:00pm 26 33 mph 1008.5mb 67f 61f
8:54pm 26 31 mph 1008.5mb 67f 61f
8:48pm 28 32 mph 1008.3mb 67f 61f
8:42pm 26 30 mph 1008.3mb 67f 61f
8:36pm 22 29 mph 1008.2mb 67f 62f
8:30pm 22 26 mph 1008.2mb 67f 62f
8:24pm 20 22 mph 1008.1mb 67f 62f
8:18pm 22 28 mph 1008mb 67f 62f
8:12pm 18 25 mph 1007.9mb 67f 62f
8:06pm 21 24 mph 1007.8mb 67f 62f
8:00pm 21 24 mph 1007.8mb 67f 62f
7:54pm 21 25 mph 1007.7mb 67f 62f
7:48pm 17 24 mph 1007.5mb 67f 63f
7:42pm 25 29 mph 1007.2mb 67f 63f
7:36pm 23 29 mph 1007.2mb 67f 63f
7:30pm 26 31 mph 1007mb 67f 63f
7:24pm 20 33 mph 1007.1mb 67f 64f
7:18pm 29 34 mph 1007mb 67f 64f
7:12pm 23 26 mph 1006.8mb 67f 64f
7:06pm 25 30 mph 1006.7mb 67f 64f
7:00pm 21 24 mph 1006.6mb 67f 65f
6:54pm 22 28 mph 1006.5mb 67f 65f
6:48pm 29 33 mph 1006.3mb 67f 65f
6:42pm 28 32 mph 1006.2mb 67f 65f
6:36pm 25 30 mph 1006.2mb 67f 65f
6:30pm 29 36 mph 1006.1mb 67f 65f
6:24pm 28 33 mph 1005.9mb 67f 66f
6:18pm 22 24 mph 1005.7mb 67f 67f
6:12pm 22 26 mph 1005.5mb 67f 67f
6:06pm 25 31 mph 1005.4mb 67f 67f
6:00pm 21 24 mph 1005.4mb 67f 67f
5:54pm 20 23 mph 1005.2mb 67f 68f
5:48pm 21 25 mph 1005mb 67f 68f
5:42pm 21 24 mph 1004.8mb 67f 68f
5:36pm 22 26 mph 1004.8mb 67f 68f
5:30pm 22 26 mph 1004.7mb 67f 68f
5:24pm 20 23 mph 1004.6mb 67f 69f
5:18pm 17 21 mph 1004.6mb 67f 68f
5:12pm 21 24 mph 1004.5mb 67f 69f
5:06pm 20 23 mph 1004.5mb 67f 69f
5:00pm 21 24 mph 1004.6mb 67f 69f
4:54pm 21 24 mph 1004.5mb 67f 69f
4:48pm 20 23 mph 1004.5mb 67f 68f
4:42pm 21 23 mph 1004.5mb 67f 69f
4:36pm 22 24 mph 1004.4mb 67f 69f
4:30pm 18 22 mph 1004.3mb 67f 69f
4:24pm 18 22 mph 1004.2mb 67f 69f
4:18pm 18 22 mph 1004mb 67f 69f
4:12pm 22 25 mph 1003.9mb 67f 69f
4:06pm 21 24 mph 1003.8mb 67f 69f
4:00pm 14 21 mph 1003.8mb 67f 70f
3:54pm 20 23 mph 1003.9mb 67f 70f
3:48pm 14 15 mph 1003.9mb 67f 70f
3:42pm 16 18 mph 1003.9mb 67f 69f
3:36pm 16 17 mph 1003.9mb 67f 69f
3:30pm 18 23 mph 1003.9mb 67f 70f
3:24pm 17 22 mph 1003.7mb 67f 70f
3:18pm 18 22 mph 1003.7mb 67f 70f
3:12pm 15 18 mph 1003.6mb 67f 71f
3:06pm 18 21 mph 1003.6mb 67f 70f
3:00pm 16 18 mph 1003.4mb 67f 71f
2:54pm 21 24 mph 1003.3mb 67f 70f
2:48pm 16 21 mph 1003.2mb 67f 69f
2:42pm 17 22 mph 1003mb 67f 70f
2:36pm 15 21 mph 1003.2mb 67f 69f
2:30pm 15 16 mph 1003.2mb 67f 70f
2:24pm 16 22 mph 1003.3mb 67f 69f
2:18pm 17 23 mph 1003.3mb 67f 70f
2:12pm 15 18 mph 1003.3mb 67f 69f
2:06pm 15 17 mph 1003.4mb 67f 69f
2:00pm 15 18 mph 1003.4mb 67f 69f
1:54pm 14 16 mph 1003.4mb 67f 69f
1:48pm 14 15 mph 1003.5mb 67f 69f
1:42pm 15 20 mph 1003.5mb 67f 69f
1:36pm 15 17 mph 1003.6mb 67f 69f
1:30pm 18 21 mph 1003.6mb 67f 69f
1:24pm 16 17 mph 1003.6mb 67f 69f
1:18pm 15 18 mph 1003.6mb 67f 69f
1:12pm 16 20 mph 1003.6mb 67f 69f
1:06pm 20 22 mph 1003.7mb 66f 69f
1:00pm 21 23 mph 1003.8mb 66f 69f
12:54pm 17 21 mph 1003.9mb 66f 69f
12:48pm 18 22 mph 1003.9mb 67f 69f
12:42pm 17 20 mph 1003.9mb 67f 69f
12:36pm 14 17 mph 1004mb 67f 69f
12:30pm 20 22 mph 1004mb 66f 69f
12:24pm 16 22 mph 1004.1mb 66f 69f
12:18pm 15 17 mph 1004.2mb 66f 68f
12:12pm 14 16 mph 1004.1mb 66f 68f
12:06pm 15 17 mph 1004.1mb 66f 68f
12:00pm 16 18 mph 1004.2mb 66f 68f
11:54am 16 20 mph 1004.2mb 66f 68f
11:48am 16 20 mph 1004.3mb 66f 68f
11:42am 13 15 mph 1004.2mb 66f 67f
11:36am 14 16 mph 1004.1mb 66f 67f
11:30am 16 18 mph 1004mb 66f 67f
11:24am 17 20 mph 1004mb 66f 67f
11:18am 16 18 mph 1004mb 66f 67f
11:12am 14 18 mph 1004.1mb 66f 67f
11:06am 13 18 mph 1004.2mb 66f 67f
11:00am 15 17 mph 1004.3mb 66f 67f
10:54am 14 16 mph 1004.3mb 66f 67f
10:48am 15 17 mph 1004.3mb 66f 67f
10:42am 14 16 mph 1004.3mb 66f 67f
10:36am 15 18 mph 1004.3mb 66f 67f
10:30am 18 21 mph 1004.2mb 66f 67f
10:24am 15 18 mph 1004.3mb 66f 67f
10:18am 15 20 mph 1004.2mb 66f 67f
10:12am 9 15 mph 1004.1mb 66f 66f
10:06am 8 11 mph 1004mb 66f 65f
10:00am 7 10 mph 1004mb 66f 65f
9:54am 9 14 mph 1004mb 66f 65f
9:48am 9 14 mph 1004mb 66f 65f
9:42am 10 15 mph 1003.9mb 66f 65f
9:36am 11 14 mph 1004mb 66f 64f
9:30am 9 14 mph 1003.9mb 66f 64f
9:24am 9 13 mph 1003.9mb 66f 63f
9:18am 9 15 mph 1003.8mb 66f 63f
9:12am 9 16 mph 1003.8mb 66f 63f
9:06am 10 15 mph 1003.8mb 66f 63f
9:00am 9 13 mph 1003.7mb 66f 63f
8:54am 9 13 mph 1003.6mb 66f 62f
8:48am 5 8 mph 1003.6mb 66f 63f
8:42am 5 10 mph 1003.6mb 66f 63f
8:36am 5 10 mph 1003.6mb 66f 62f
8:30am 5 13 mph 1003.5mb 66f 62f
8:24am 8 13 mph 1003.4mb 67f 61f
8:18am 7 9 mph 1003.5mb 67f 61f
8:12am 7 10 mph 1003.5mb 67f 61f
8:06am 8 11 mph 1003.4mb 67f 61f
8:00am 7 11 mph 1003.4mb 67f 60f
7:54am 9 13 mph 1003.4mb 67f 60f
7:48am 8 11 mph 1003.4mb 67f 60f
7:42am 8 11 mph 1003.4mb 67f 60f
7:36am 8 10 mph 1003.4mb 67f 59f
7:30am 8 11 mph 1003.3mb 67f 59f
7:24am 7 11 mph 1003.2mb 67f 59f
7:18am 8 10 mph 1003.2mb 67f 59f
7:12am 7 9 mph 1003.2mb 67f 59f
7:06am 9 13 mph 1003.2mb 67f 59f
7:00am 7 9 mph 1003.2mb 67f 59f
6:54am 7 10 mph 1003.1mb 67f 59f
6:48am 7 9 mph 1003.1mb 67f 59f
6:42am 8 11 mph 1003.1mb 67f 59f
6:36am 8 13 mph 1003mb 67f 59f
6:30am 6 9 mph 1003mb 67f 59f
6:24am 7 8 mph 1003mb 67f 59f
6:18am 7 11 mph 1003mb 67f 59f
6:12am 7 10 mph 1003mb 67f 59f
6:06am 6 8 mph 1003.1mb 67f 59f
6:00am 7 9 mph 1003.1mb 67f 59f
5:54am 7 10 mph 1003.1mb 67f 59f
5:48am 8 10 mph 1003mb 67f 60f
5:42am 7 13 mph 1003mb 67f 60f
5:36am 8 11 mph 1003.1mb 67f 60f
5:30am 8 11 mph 1003mb 67f 60f
5:24am 8 11 mph 1003.1mb 67f 60f
5:18am 9 14 mph 1003mb 67f 60f
5:12am 8 10 mph 1003mb 67f 60f
5:06am 8 11 mph 1003mb 67f 60f
5:00am 8 11 mph 1003mb 67f 60f
4:54am 8 11 mph 1003mb 67f 60f
4:48am 7 10 mph 1003mb 67f 60f
4:42am 8 10 mph 1003.1mb 67f 60f
4:36am 9 13 mph 1003.1mb 67f 61f
4:30am 9 15 mph 1003.1mb 67f 61f
4:24am 10 13 mph 1003.1mb 67f 61f
4:18am 9 14 mph 1003.1mb 67f 61f
4:12am 9 13 mph 1003.1mb 67f 61f
4:06am 7 10 mph 1003.1mb 67f 61f
4:00am 8 11 mph 1003.1mb 67f 61f
3:54am 8 11 mph 1003.1mb 67f 61f
3:48am 8 11 mph 1003.1mb 67f 61f
3:42am 8 11 mph 1003.1mb 67f 61f
3:36am 7 11 mph 1003.1mb 67f 61f
3:30am 9 13 mph 1003.2mb 67f 62f
3:24am 8 14 mph 1003.3mb 67f 62f
3:18am 8 13 mph 1003.2mb 67f 62f
3:12am 9 14 mph 1003.3mb 67f 62f
3:06am 9 16 mph 1003.3mb 67f 62f
3:00am 7 11 mph 1003.4mb 67f 62f
2:54am 8 15 mph 1003.5mb 67f 62f
2:48am 8 14 mph 1003.6mb 67f 62f
2:42am 7 11 mph 1003.8mb 67f 62f
2:36am 8 13 mph 1003.9mb 67f 62f
2:30am 6 9 mph 1004.1mb 67f 62f
2:24am 6 9 mph 1004.2mb 67f 62f
2:18am 6 9 mph 1004.3mb 67f 62f
2:12am 7 10 mph 1004.4mb 67f 62f
2:06am 7 9 mph 1004.5mb 67f 62f
2:00am 6 9 mph 1004.6mb 67f 62f
1:54am 6 10 mph 1004.7mb 67f 62f
1:48am 7 13 mph 1004.7mb 67f 62f
1:42am 7 10 mph 1004.8mb 67f 62f
1:36am 6 10 mph 1004.9mb 67f 62f
1:30am 6 9 mph 1004.9mb 67f 62f
1:24am 5 8 mph 1005mb 67f 62f
1:18am 6 9 mph 1005.1mb 67f 62f
1:12am 5 7 mph 1005.2mb 67f 62f
1:06am 5 7 mph 1005.2mb 67f 62f
1:00am 6 8 mph 1005.3mb 67f 62f
12:54am 5 9 mph 1005.4mb 67f 62f
12:48am 6 7 mph 1005.5mb 67f 62f
12:42am 6 9 mph 1005.5mb 67f 62f
12:36am 6 9 mph 1005.6mb 67f 62f
12:30am 6 9 mph 1005.6mb 67f 62f
12:24am 6 9 mph 1005.7mb 67f 62f
12:18am 5 10 mph 1005.8mb 67f 62f
12:12am 5 8 mph 1005.9mb 67f 62f
12:06am 6 9 mph 1006mb 67f 62f
12:00am 5 7 mph 1006mb 67f 62f
Fri 10/17 11:54pm 5 8 mph 1005.9mb 67f 62f
11:48pm 5 7 mph 1006mb 67f 62f
11:42pm 5 7 mph 1006.1mb 67f 62f
11:36pm 5 9 mph 1006.1mb 67f 62f
11:30pm 5 8 mph 1006mb 67f -
11:24pm 6 10 mph - 67f -
11:06pm  -  mph 1006.3mb 67f 63f
11:00pm  -  mph 1006.3mb 67f 63f
10:54pm  -  mph 1006.3mb 67f 63f
10:48pm 8 13 mph 1006.4mb 67f 63f
10:18pm  -  mph - - 63f
10:12pm  -  mph - - 63f
10:06pm  -  mph - - 63f
10:00pm 6 9 mph 1007mb 67f 63f
9:54pm 6 10 mph 1007mb 67f 62f
9:48pm 7 10 mph 1007mb 67f 63f
9:42pm 5 8 mph 1007.1mb 67f 63f
9:36pm 6 9 mph 1007.1mb 67f 63f
9:30pm 6 8 mph 1007.1mb 67f 63f
9:24pm 5 9 mph 1007mb 67f 63f
9:18pm 5 8 mph 1007mb 67f 63f
9:12pm 3 6 mph 1007mb 67f 63f
9:06pm 6 8 mph 1007mb 67f 63f
9:00pm 7 11 mph 1007mb 67f 63f
8:54pm 7 9 mph 1007.1mb 67f 63f
8:48pm 6 8 mph 1007.1mb 67f 63f
8:42pm 6 8 mph 1007.1mb 67f 63f
8:36pm 5 7 mph 1007mb 67f 63f
8:30pm 5 6 mph 1007mb 67f 63f
8:24pm 3 7 mph 1006.9mb 67f 63f
8:18pm 5 6 mph 1007mb 67f 63f
8:12pm 5 6 mph 1006.9mb 67f 63f
8:06pm 3 5 mph 1007mb 67f 63f
8:00pm 5 7 mph 1007mb 67f 63f
7:54pm 5 8 mph 1007mb 67f 64f
7:48pm 5 7 mph 1006.9mb 67f 64f
7:42pm 5 6 mph 1006.9mb 67f 64f
7:36pm 3 6 mph 1006.8mb 67f 64f
7:30pm 3 7 mph 1006.8mb 67f 64f
7:24pm 6 8 mph 1006.7mb 67f 65f
7:18pm 5 7 mph 1006.8mb 67f 65f
7:12pm 5 7 mph 1006.7mb 67f 65f
7:06pm 5 7 mph 1006.7mb 67f 65f
7:00pm 3 6 mph 1006.7mb 67f 65f
6:54pm 5 6 mph 1006.7mb 67f 65f
6:48pm 3 6 mph 1006.7mb 67f 65f
6:42pm 2 5 mph 1006.6mb 67f 66f
6:36pm 3 5 mph 1006.6mb 67f 66f
6:30pm 2 5 mph 1006.6mb 67f 67f
6:24pm 3 5 mph 1006.7mb 67f 67f
6:18pm 3 6 mph 1006.6mb 67f 67f
6:12pm 6 8 mph 1006.7mb 67f 68f
6:06pm 5 6 mph 1006.7mb 67f 68f
6:00pm 6 9 mph 1006.8mb 67f 69f
5:54pm 6 9 mph 1006.8mb 67f 69f
5:48pm 6 9 mph 1006.7mb 67f 70f
5:42pm 6 9 mph 1006.7mb 67f 70f
5:36pm 7 11 mph 1006.7mb 67f 70f
5:30pm 7 10 mph 1006.6mb 67f 71f
5:24pm 8 10 mph 1006.6mb 67f 71f
5:18pm 8 14 mph 1006.7mb 67f 71f
5:12pm 6 8 mph 1006.6mb 67f 71f
5:06pm 6 7 mph 1006.6mb 67f 72f
5:00pm 5 9 mph 1006.6mb 67f 72f
4:54pm 9 13 mph 1006.6mb 67f 72f
4:48pm 9 14 mph 1006.7mb 67f 72f
4:42pm 8 13 mph 1006.6mb 67f 72f
4:36pm 7 10 mph 1006.7mb 67f 72f
4:30pm 9 14 mph 1006.7mb 67f 72f
4:24pm 8 13 mph 1006.7mb 67f 72f
4:18pm 3 5 mph 1006.7mb 67f 73f
4:12pm 5 9 mph 1006.8mb 67f 73f
4:06pm 3 6 mph 1006.8mb 67f 72f
4:00pm 5 10 mph 1006.9mb 67f 73f
3:54pm 7 10 mph 1006.9mb 67f 72f